Time;durP1;ratioP1;P1;durP2;ratioP2;P2;SDS_P1;SDS_P2;PMS_P1;PMS_P2;Temp;Humidity;BMP_temperature;BMP_pressure;BME280_temperature;BME280_humidity;BME280_pressure;Samples;Min_cycle;Max_cycle;Signal;HPM_P1;HPM_P2
2021/10/11 00:00:38;;;;;;;15.13;8.80;;;9.00;59.50;;;;;;5053159;28;20074;-63
2021/10/11 00:03:03;;;;;;;16.27;8.85;;;8.90;59.40;;;;;;5069654;28;20045;-62
2021/10/11 00:05:29;;;;;;;16.60;10.20;;;9.00;59.40;;;;;;5073096;28;20031;-62
2021/10/11 00:07:55;;;;;;;17.15;9.05;;;8.90;59.50;;;;;;5068294;28;20042;-62
2021/10/11 00:10:23;;;;;;;17.10;9.80;;;8.90;59.50;;;;;;5073155;28;20444;-62
2021/10/11 00:12:51;;;;;;;18.75;10.35;;;8.90;59.50;;;;;;5073101;28;20016;-62
2021/10/11 00:15:20;;;;;;;21.60;11.15;;;8.80;59.70;;;;;;5073000;28;20020;-62
2021/10/11 00:17:46;;;;;;;25.50;12.43;;;8.80;60.40;;;;;;5064743;28;20049;-63
2021/10/11 00:20:13;;;;;;;22.63;12.18;;;8.80;61.30;;;;;;5052916;28;20425;-62
2021/10/11 00:22:39;;;;;;;24.27;12.60;;;8.80;62.00;;;;;;5052774;28;20036;-62
2021/10/11 00:25:07;;;;;;;25.75;13.82;;;8.80;62.10;;;;;;5052744;28;20029;-62
2021/10/11 00:27:33;;;;;;;20.40;11.57;;;8.80;62.40;;;;;;5052781;28;20017;-62
2021/10/11 00:30:00;;;;;;;23.45;12.38;;;8.80;62.50;;;;;;5052747;28;20375;-62
2021/10/11 00:32:26;;;;;;;34.08;12.93;;;8.80;62.60;;;;;;5052373;28;20025;-62
2021/10/11 00:34:52;;;;;;;22.50;12.70;;;8.80;62.90;;;;;;5052678;28;20036;-62
2021/10/11 00:37:18;;;;;;;32.78;14.57;;;8.70;62.90;;;;;;5052692;28;20029;-62
2021/10/11 00:39:44;;;;;;;22.15;12.32;;;8.80;62.90;;;;;;5052673;28;20025;-62
2021/10/11 00:42:10;;;;;;;29.45;12.80;;;8.80;62.80;;;;;;5052590;28;20540;-62
2021/10/11 00:44:36;;;;;;;18.70;11.43;;;8.80;62.80;;;;;;5051750;28;20458;-62
2021/10/11 00:47:02;;;;;;;23.83;11.75;;;8.70;62.80;;;;;;5060511;28;20035;-62
2021/10/11 00:49:28;;;;;;;23.55;11.75;;;8.80;62.80;;;;;;5052337;28;20104;-62
2021/10/11 00:51:55;;;;;;;19.90;11.50;;;8.70;62.90;;;;;;5052407;28;20104;-62
2021/10/11 00:54:23;;;;;;;28.88;13.25;;;8.70;62.90;;;;;;5052598;28;20036;-62
2021/10/11 00:56:50;;;;;;;29.80;12.38;;;8.70;63.00;;;;;;5052586;28;20083;-62
2021/10/11 00:59:16;;;;;;;24.55;12.15;;;8.70;63.00;;;;;;5052684;28;20477;-62
2021/10/11 01:01:42;;;;;;;22.23;12.48;;;8.70;62.90;;;;;;5052328;28;20421;-63
2021/10/11 01:04:08;;;;;;;24.00;12.10;;;8.70;62.70;;;;;;5063956;28;20106;-62
2021/10/11 01:06:40;;;;;;;20.33;10.30;;;8.70;62.50;;;;;;5072274;28;20071;-62
2021/10/11 01:09:08;;;;;;;22.00;12.13;;;8.70;62.20;;;;;;5072409;28;20032;-62
2021/10/11 01:11:34;;;;;;;21.08;11.88;;;8.70;62.20;;;;;;5072410;28;20029;-63
2021/10/11 01:14:00;;;;;;;24.10;12.95;;;8.70;62.30;;;;;;5070678;28;20039;-62
2021/10/11 01:16:26;;;;;;;19.40;11.65;;;8.70;62.50;;;;;;5072435;28;20025;-63
2021/10/11 01:18:52;;;;;;;21.83;11.35;;;8.70;62.60;;;;;;5071036;28;20371;-63
2021/10/11 01:21:18;;;;;;;22.67;13.27;;;8.70;62.40;;;;;;5072272;28;20032;-62
2021/10/11 01:23:44;;;;;;;21.13;11.88;;;8.70;62.30;;;;;;5072233;28;20025;-62
2021/10/11 01:26:10;;;;;;;16.38;9.68;;;8.70;62.10;;;;;;5072226;28;20036;-62
2021/10/11 01:28:35;;;;;;;18.55;9.73;;;8.70;61.90;;;;;;5070540;28;20028;-62
2021/10/11 01:31:01;;;;;;;16.00;9.93;;;8.70;61.70;;;;;;5072163;28;20028;-63
2021/10/11 01:33:27;;;;;;;21.52;11.73;;;8.70;61.50;;;;;;5054765;28;20021;-63
2021/10/11 01:35:53;;;;;;;21.02;11.23;;;8.70;62.40;;;;;;5052099;28;20094;-63
2021/10/11 01:38:19;;;;;;;19.20;9.55;;;8.60;61.60;;;;;;5053499;28;20037;-62
2021/10/11 01:40:44;;;;;;;14.77;9.32;;;8.60;61.50;;;;;;5052205;28;20029;-63
2021/10/11 01:43:11;;;;;;;16.58;9.13;;;8.60;61.50;;;;;;5052094;28;20036;-62
2021/10/11 01:45:37;;;;;;;19.33;10.40;;;8.60;61.50;;;;;;5051847;28;20041;-62
2021/10/11 01:48:04;;;;;;;17.88;9.15;;;8.50;61.40;;;;;;5065119;28;20419;-62
2021/10/11 01:50:31;;;;;;;14.65;9.23;;;8.50;61.30;;;;;;5070931;28;20536;-63
2021/10/11 01:52:57;;;;;;;18.50;9.73;;;8.50;61.20;;;;;;5072176;28;20025;-63
2021/10/11 01:55:24;;;;;;;18.33;9.60;;;8.50;61.20;;;;;;5072150;28;20382;-62
2021/10/11 01:57:49;;;;;;;16.38;9.45;;;8.50;61.20;;;;;;5075337;28;20056;-63
2021/10/11 02:00:15;;;;;;;20.55;10.32;;;8.40;61.10;;;;;;5075572;28;20055;-63
2021/10/11 02:02:41;;;;;;;19.27;10.07;;;8.40;61.20;;;;;;5075409;28;20086;-62
2021/10/11 02:05:08;;;;;;;17.48;9.77;;;8.40;61.30;;;;;;5055213;28;20090;-63
2021/10/11 02:07:34;;;;;;;17.75;10.20;;;8.40;62.20;;;;;;5055485;28;20023;-63
2021/10/11 02:10:00;;;;;;;15.70;9.48;;;8.30;61.40;;;;;;5055377;28;20028;-63
2021/10/11 02:12:26;;;;;;;22.52;10.45;;;8.30;61.50;;;;;;5055415;28;20048;-63
2021/10/11 02:14:52;;;;;;;20.80;11.38;;;8.30;61.50;;;;;;5055345;28;20049;-63
2021/10/11 02:17:18;;;;;;;19.98;11.20;;;8.20;61.50;;;;;;5055410;28;20028;-63
2021/10/11 02:19:44;;;;;;;17.83;9.52;;;8.30;61.70;;;;;;5055169;28;20052;-62
2021/10/11 02:22:10;;;;;;;15.98;9.38;;;8.20;61.60;;;;;;5055121;28;20103;-63
2021/10/11 02:24:36;;;;;;;19.02;10.75;;;8.20;61.60;;;;;;5055108;28;20025;-63
2021/10/11 02:27:02;;;;;;;20.58;11.93;;;8.20;61.90;;;;;;5058664;28;20667;-63
2021/10/11 02:29:29;;;;;;;18.92;10.75;;;8.20;62.10;;;;;;5075036;28;20020;-63
2021/10/11 02:31:56;;;;;;;19.10;10.60;;;8.20;62.10;;;;;;5075081;28;20479;-63
2021/10/11 02:34:22;;;;;;;21.45;11.32;;;8.20;62.10;;;;;;5074956;28;20099;-64
2021/10/11 02:36:48;;;;;;;21.90;11.88;;;8.10;62.30;;;;;;5056643;28;20113;-62
2021/10/11 02:39:14;;;;;;;21.33;11.77;;;8.10;62.50;;;;;;5054836;28;20487;-62
2021/10/11 02:41:40;;;;;;;19.90;11.65;;;8.10;62.60;;;;;;5054885;28;20025;-63
2021/10/11 02:44:06;;;;;;;19.33;10.80;;;8.10;62.50;;;;;;5054559;28;20024;-62
2021/10/11 02:46:32;;;;;;;23.67;13.50;;;8.10;62.50;;;;;;5074221;28;20032;-62
2021/10/11 02:48:57;;;;;;;19.08;11.40;;;8.10;62.60;;;;;;5074719;28;20382;-63
2021/10/11 02:51:23;;;;;;;18.05;11.10;;;8.10;62.50;;;;;;5074584;28;20020;-62
2021/10/11 02:53:49;;;;;;;21.10;10.10;;;8.00;62.30;;;;;;5074598;28;20474;-62
2021/10/11 02:56:19;;;;;;;19.27;10.25;;;8.00;62.30;;;;;;5055059;28;20541;-62
2021/10/11 02:58:45;;;;;;;19.85;9.70;;;8.00;62.30;;;;;;5054463;28;20028;-63
2021/10/11 03:01:11;;;;;;;18.17;10.43;;;8.00;62.20;;;;;;5054490;28;20096;-62
2021/10/11 03:03:38;;;;;;;21.55;10.55;;;8.00;62.40;;;;;;5054371;28;20124;-62
2021/10/11 03:06:05;;;;;;;24.77;11.77;;;7.90;62.40;;;;;;5067564;28;20032;-63
2021/10/11 03:08:35;;;;;;;20.35;11.27;;;7.90;62.60;;;;;;5073548;28;20013;-63
2021/10/11 03:11:02;;;;;;;21.05;11.55;;;7.90;62.80;;;;;;5072606;28;20587;-63
2021/10/11 03:13:28;;;;;;;20.85;11.82;;;7.90;62.70;;;;;;5067877;28;20043;-63
2021/10/11 03:15:54;;;;;;;22.52;11.90;;;7.90;63.10;;;;;;5054256;28;20540;-63
2021/10/11 03:18:20;;;;;;;18.77;11.73;;;7.90;63.60;;;;;;5054020;28;20470;-63
2021/10/11 03:20:46;;;;;;;32.22;13.43;;;7.90;63.90;;;;;;5052629;28;20025;-62
2021/10/11 03:23:11;;;;;;;22.63;13.30;;;7.90;64.10;;;;;;5052734;28;20032;-63
2021/10/11 03:25:37;;;;;;;21.70;12.43;;;7.90;64.30;;;;;;5052538;28;20359;-62
2021/10/11 03:28:03;;;;;;;24.50;12.95;;;7.90;64.40;;;;;;5053753;28;20109;-62
2021/10/11 03:30:29;;;;;;;25.20;12.80;;;7.90;64.50;;;;;;5053710;28;20398;-62
2021/10/11 03:32:55;;;;;;;29.35;13.38;;;7.90;64.70;;;;;;5053571;28;20017;-62
2021/10/11 03:35:21;;;;;;;24.35;13.35;;;7.80;64.80;;;;;;5053488;28;20021;-62
2021/10/11 03:37:47;;;;;;;29.67;12.27;;;7.80;64.90;;;;;;5053691;28;20063;-63
2021/10/11 03:40:13;;;;;;;26.17;12.73;;;7.80;65.70;;;;;;5053630;28;20466;-62
2021/10/11 03:42:39;;;;;;;23.70;12.73;;;7.80;64.70;;;;;;5054254;28;20029;-62
2021/10/11 03:45:08;;;;;;;29.20;14.35;;;7.90;64.80;;;;;;5053426;28;20440;-63
2021/10/11 03:47:37;;;;;;;22.48;12.95;;;7.80;64.80;;;;;;5053629;28;20053;-62
2021/10/11 03:50:03;;;;;;;25.20;14.00;;;7.80;65.00;;;;;;5053542;28;20047;-64
2021/10/11 03:52:29;;;;;;;25.88;13.38;;;7.80;65.00;;;;;;5053428;28;20036;-64
2021/10/11 03:54:54;;;;;;;27.40;13.40;;;7.80;65.10;;;;;;5053434;28;20028;-61
2021/10/11 03:57:20;;;;;;;22.90;13.38;;;7.80;65.10;;;;;;5053570;28;20024;-61
2021/10/11 03:59:46;;;;;;;30.92;13.57;;;7.80;65.10;;;;;;5053354;28;20017;-62
2021/10/11 04:02:12;;;;;;;27.17;13.45;;;7.80;65.20;;;;;;5053114;28;20036;-61
2021/10/11 04:04:37;;;;;;;26.73;14.77;;;7.80;65.20;;;;;;5056879;28;20025;-62
2021/10/11 04:07:08;;;;;;;24.83;13.38;;;7.80;65.30;;;;;;5073173;28;20028;-63
2021/10/11 04:09:35;;;;;;;29.00;13.35;;;7.80;65.40;;;;;;5073113;28;20027;-63
2021/10/11 04:12:17;;;;;;;22.90;14.00;;;7.80;66.10;;;;;;5073124;28;20498;-63
2021/10/11 04:14:43;;;;;;;21.35;12.07;;;7.80;65.20;;;;;;5071445;28;20021;-63
2021/10/11 04:17:08;;;;;;;21.25;12.45;;;7.80;65.00;;;;;;5073070;28;20487;-63
2021/10/11 04:19:34;;;;;;;20.88;11.35;;;7.70;64.60;;;;;;5072940;28;20028;-63
2021/10/11 04:22:00;;;;;;;24.20;12.88;;;7.70;64.40;;;;;;5073044;28;20111;-63
2021/10/11 04:24:26;;;;;;;20.85;11.95;;;7.70;64.20;;;;;;5072846;28;20025;-63
2021/10/11 04:26:51;;;;;;;21.88;11.30;;;7.70;64.10;;;;;;5072871;28;20052;-63
2021/10/11 04:29:17;;;;;;;21.50;11.13;;;7.70;63.90;;;;;;5064187;28;20474;-63
2021/10/11 04:31:43;;;;;;;27.40;13.10;;;7.70;63.90;;;;;;5052932;28;20021;-63
2021/10/11 04:34:09;;;;;;;18.92;10.80;;;7.70;63.90;;;;;;5052882;28;20029;-63
2021/10/11 04:36:35;;;;;;;20.35;11.75;;;7.70;63.90;;;;;;5052586;28;20032;-63
2021/10/11 04:39:01;;;;;;;26.80;12.25;;;7.70;64.70;;;;;;5052859;28;20386;-63
2021/10/11 04:41:26;;;;;;;23.35;11.15;;;7.70;63.90;;;;;;5052490;28;20152;-63
2021/10/11 04:43:52;;;;;;;16.30;10.23;;;7.60;63.70;;;;;;5055898;28;20113;-63
2021/10/11 04:46:18;;;;;;;23.05;11.38;;;7.60;63.70;;;;;;5052502;28;20206;-63
2021/10/11 04:48:44;;;;;;;25.33;13.95;;;7.60;63.80;;;;;;5052794;28;20021;-63
2021/10/11 04:51:10;;;;;;;19.85;12.55;;;7.60;64.40;;;;;;5052575;28;20025;-63
2021/10/11 04:53:35;;;;;;;26.33;13.85;;;7.60;64.70;;;;;;5052590;28;20466;-63
2021/10/11 04:56:01;;;;;;;25.50;14.90;;;7.60;65.00;;;;;;5052548;28;20095;-64
2021/10/11 04:58:27;;;;;;;25.35;13.13;;;7.60;65.40;;;;;;5052399;28;20040;-63
2021/10/11 05:00:52;;;;;;;21.50;12.40;;;7.60;65.60;;;;;;5052588;28;20040;-63
2021/10/11 05:03:18;;;;;;;21.85;11.98;;;7.60;65.50;;;;;;5052395;28;20128;-63
2021/10/11 05:05:44;;;;;;;19.08;11.45;;;7.60;65.20;;;;;;5052265;28;20394;-63
2021/10/11 05:08:10;;;;;;;19.58;10.40;;;7.60;65.00;;;;;;5052548;28;20031;-63
2021/10/11 05:10:35;;;;;;;19.40;10.77;;;7.60;64.70;;;;;;5052493;28;20028;-63
2021/10/11 05:13:01;;;;;;;20.02;12.13;;;7.70;64.60;;;;;;5052397;28;20028;-63
2021/10/11 05:15:27;;;;;;;27.98;13.52;;;7.60;64.60;;;;;;5052491;28;20033;-63
2021/10/11 05:17:53;;;;;;;24.48;14.38;;;7.60;64.90;;;;;;5052324;28;20032;-63
2021/10/11 05:20:19;;;;;;;21.13;12.90;;;7.60;65.20;;;;;;5053151;28;20029;-62
2021/10/11 05:22:45;;;;;;;28.40;13.23;;;7.60;65.40;;;;;;5071072;28;20032;-62
2021/10/11 05:25:11;;;;;;;23.33;12.70;;;7.60;65.50;;;;;;5072218;28;20040;-63
2021/10/11 05:27:37;;;;;;;20.13;12.40;;;7.70;65.60;;;;;;5072455;28;20040;-62
2021/10/11 05:30:04;;;;;;;19.77;11.18;;;7.70;65.60;;;;;;5070564;28;20064;-63
2021/10/11 05:32:32;;;;;;;24.83;13.63;;;7.70;65.50;;;;;;5063754;28;20021;-63
2021/10/11 05:34:58;;;;;;;26.42;14.50;;;7.70;65.40;;;;;;5076119;28;20027;-63
2021/10/11 05:37:29;;;;;;;24.25;11.77;;;7.70;65.40;;;;;;5062479;28;20017;-63
2021/10/11 05:39:54;;;;;;;24.05;12.55;;;7.60;65.50;;;;;;5055839;28;20379;-62
2021/10/11 05:42:20;;;;;;;24.92;12.40;;;7.60;65.40;;;;;;5055741;28;20020;-63
2021/10/11 05:44:47;;;;;;;20.13;11.95;;;7.60;65.30;;;;;;5054553;28;20392;-63
2021/10/11 05:47:12;;;;;;;25.85;13.32;;;7.70;65.20;;;;;;5055630;28;20453;-63
2021/10/11 05:49:38;;;;;;;18.20;11.60;;;7.70;65.10;;;;;;5055711;28;20037;-63
2021/10/11 05:52:05;;;;;;;20.35;11.98;;;7.70;64.90;;;;;;5055770;28;20025;-64
2021/10/11 05:54:30;;;;;;;22.08;11.75;;;7.70;64.70;;;;;;5055657;28;20060;-63
2021/10/11 05:56:57;;;;;;;19.45;10.88;;;7.70;64.60;;;;;;5055572;28;20053;-63
2021/10/11 05:59:23;;;;;;;17.05;10.43;;;7.70;64.50;;;;;;5055467;28;20025;-63
2021/10/11 06:01:49;;;;;;;21.35;11.18;;;7.70;64.50;;;;;;5055579;28;20029;-63
2021/10/11 06:04:15;;;;;;;17.92;10.35;;;7.70;64.40;;;;;;5055223;28;20465;-63
2021/10/11 06:06:40;;;;;;;14.80;9.50;;;7.70;64.50;;;;;;5055301;28;20025;-63
2021/10/11 06:09:06;;;;;;;16.75;10.15;;;7.70;64.50;;;;;;5055482;28;20519;-63
2021/10/11 06:11:32;;;;;;;21.13;11.55;;;7.70;64.60;;;;;;5055175;28;20371;-63
2021/10/11 06:13:58;;;;;;;24.60;11.32;;;7.70;64.60;;;;;;5054937;28;20036;-63
2021/10/11 06:16:24;;;;;;;26.00;12.05;;;7.80;64.90;;;;;;5055228;28;20032;-63
2021/10/11 06:18:49;;;;;;;20.02;12.77;;;7.80;64.80;;;;;;5055321;28;20032;-63
2021/10/11 06:21:15;;;;;;;25.88;12.82;;;7.90;65.00;;;;;;5053962;28;20029;-63
2021/10/11 06:23:41;;;;;;;19.15;11.48;;;7.90;65.00;;;;;;5055221;28;20055;-63
2021/10/11 06:26:07;;;;;;;21.00;11.00;;;8.00;64.90;;;;;;5055139;28;20076;-63
2021/10/11 06:28:33;;;;;;;29.10;12.25;;;8.00;64.80;;;;;;5055568;28;20017;-63
2021/10/11 06:30:59;;;;;;;20.40;11.73;;;8.10;64.70;;;;;;5054988;28;20029;-62
2021/10/11 06:33:26;;;;;;;21.55;11.20;;;8.10;64.70;;;;;;5055017;28;20025;-63
2021/10/11 06:35:52;;;;;;;19.30;10.82;;;8.20;64.60;;;;;;5055054;28;20021;-62
2021/10/11 06:38:18;;;;;;;26.13;11.75;;;8.20;64.40;;;;;;5054878;28;20021;-64
2021/10/11 06:40:46;;;;;;;26.23;12.65;;;8.30;64.40;;;;;;5054717;28;20462;-63
2021/10/11 06:43:13;;;;;;;17.92;11.45;;;8.30;64.20;;;;;;5053644;28;20036;-63
2021/10/11 06:45:38;;;;;;;31.75;12.98;;;8.40;64.30;;;;;;5057966;28;20462;-62
2021/10/11 06:48:04;;;;;;;23.67;12.02;;;8.50;64.30;;;;;;5054876;28;20056;-63
2021/10/11 06:50:30;;;;;;;23.98;12.02;;;8.50;64.30;;;;;;5054780;28;20040;-62
2021/10/11 06:52:56;;;;;;;18.98;11.90;;;8.60;64.30;;;;;;5054790;28;20018;-62
2021/10/11 06:55:22;;;;;;;22.55;12.07;;;8.60;64.40;;;;;;5054731;28;20414;-62
2021/10/11 06:57:48;;;;;;;28.80;12.57;;;8.70;64.40;;;;;;5054547;28;20025;-63
2021/10/11 07:00:14;;;;;;;23.60;12.45;;;8.70;65.20;;;;;;5054267;28;20033;-63
2021/10/11 07:02:40;;;;;;;21.88;12.05;;;8.80;64.30;;;;;;5054157;28;20071;-63
2021/10/11 07:05:10;;;;;;;17.20;11.77;;;8.90;64.30;;;;;;5054470;28;20389;-63
2021/10/11 07:07:39;;;;;;;27.83;12.30;;;8.90;64.20;;;;;;5054373;28;20495;-62
2021/10/11 07:10:05;;;;;;;24.92;12.90;;;9.00;63.90;;;;;;5057718;28;20391;-62
2021/10/11 07:12:31;;;;;;;21.45;12.63;;;9.00;63.80;;;;;;5054236;28;20425;-63
2021/10/11 07:14:57;;;;;;;16.48;10.93;;;9.10;63.80;;;;;;5054146;28;20025;-63
2021/10/11 07:17:22;;;;;;;25.73;11.90;;;9.10;63.60;;;;;;5054229;28;20474;-63
2021/10/11 07:19:48;;;;;;;16.85;9.93;;;9.20;63.50;;;;;;5054124;28;20025;-63
2021/10/11 07:22:15;;;;;;;22.05;10.20;;;9.30;63.50;;;;;;5054186;28;20021;-63
2021/10/11 07:24:42;;;;;;;15.02;10.23;;;9.40;63.40;;;;;;5058993;28;20016;-63
2021/10/11 07:27:08;;;;;;;20.95;10.70;;;9.40;63.10;;;;;;5060285;28;20020;-63
2021/10/11 07:29:35;;;;;;;20.90;10.90;;;9.50;63.00;;;;;;5073889;28;20411;-63
2021/10/11 07:32:01;;;;;;;20.13;11.93;;;9.60;62.60;;;;;;5061045;28;20032;-64
2021/10/11 07:34:28;;;;;;;20.77;11.20;;;9.70;62.40;;;;;;5059043;28;20470;-64
2021/10/11 07:36:53;;;;;;;17.63;10.52;;;9.80;62.30;;;;;;5073794;28;20470;-63
2021/10/11 07:39:19;;;;;;;17.83;9.65;;;9.80;62.10;;;;;;5057091;28;20029;-63
2021/10/11 07:41:45;;;;;;;21.88;11.13;;;9.90;62.00;;;;;;5073055;28;20037;-63
2021/10/11 07:44:11;;;;;;;19.95;12.18;;;10.00;61.70;;;;;;5071781;28;20024;-64
2021/10/11 07:46:38;;;;;;;21.85;11.25;;;10.10;61.30;;;;;;5071520;28;20036;-63
2021/10/11 07:49:04;;;;;;;34.47;12.13;;;10.10;61.10;;;;;;5072702;28;20016;-64
2021/10/11 07:51:30;;;;;;;19.63;10.95;;;10.20;60.90;;;;;;5072609;28;20378;-64
2021/10/11 07:53:56;;;;;;;25.55;12.00;;;10.30;60.80;;;;;;5072295;28;20024;-64
2021/10/11 07:56:22;;;;;;;26.92;11.85;;;10.40;60.50;;;;;;5072475;28;20016;-64
2021/10/11 07:58:47;;;;;;;26.33;12.50;;;10.40;60.20;;;;;;5071079;28;20032;-64
2021/10/11 08:01:13;;;;;;;19.92;11.80;;;10.50;60.20;;;;;;5060105;28;20342;-63
2021/10/11 08:03:39;;;;;;;29.80;12.02;;;10.60;60.00;;;;;;5072227;28;20428;-64
2021/10/11 08:06:06;;;;;;;23.73;12.63;;;10.60;59.70;;;;;;5063747;28;20163;-63
2021/10/11 08:08:32;;;;;;;19.92;11.50;;;10.70;59.80;;;;;;5052093;28;20017;-64
2021/10/11 08:10:58;;;;;;;20.55;12.23;;;10.80;59.80;;;;;;5054103;28;20033;-64
2021/10/11 08:13:24;;;;;;;24.23;12.43;;;10.90;59.50;;;;;;5057437;28;20062;-63
2021/10/11 08:15:50;;;;;;;33.65;14.40;;;10.90;59.80;;;;;;5058610;28;20025;-62
2021/10/11 08:18:17;;;;;;;23.23;12.55;;;10.90;58.90;;;;;;5051957;28;20029;-63
2021/10/11 08:20:43;;;;;;;26.48;13.20;;;11.00;58.90;;;;;;5052157;28;20021;-63
2021/10/11 08:23:09;;;;;;;37.70;14.52;;;11.00;58.80;;;;;;5051978;28;20052;-62
2021/10/11 08:25:36;;;;;;;23.15;11.70;;;11.10;59.50;;;;;;5051998;28;20031;-62
2021/10/11 08:28:02;;;;;;;19.15;12.43;;;11.20;58.80;;;;;;5056506;28;20549;-63
2021/10/11 08:30:28;;;;;;;21.27;12.93;;;11.20;59.00;;;;;;5066930;28;20359;-62
2021/10/11 08:32:54;;;;;;;22.58;11.75;;;11.30;58.90;;;;;;5070163;28;20021;-62
2021/10/11 08:35:20;;;;;;;22.60;13.25;;;11.40;58.80;;;;;;5063114;28;20032;-64
2021/10/11 08:37:46;;;;;;;22.48;12.55;;;11.50;58.70;;;;;;5067014;28;20021;-64
2021/10/11 08:40:12;;;;;;;25.23;14.57;;;11.50;58.60;;;;;;5085752;28;20443;-61
2021/10/11 08:42:39;;;;;;;24.63;14.20;;;11.60;58.50;;;;;;5076677;28;20024;-62
2021/10/11 08:45:08;;;;;;;27.65;14.88;;;11.70;58.60;;;;;;5065537;28;20036;-62
2021/10/11 08:47:34;;;;;;;27.40;14.98;;;11.70;58.60;;;;;;5064506;28;20029;-62
2021/10/11 08:50:00;;;;;;;25.70;14.98;;;11.80;58.40;;;;;;5066623;28;20359;-62
2021/10/11 08:52:26;;;;;;;21.88;13.27;;;11.90;58.30;;;;;;5056396;28;20077;-62
2021/10/11 08:54:55;;;;;;;24.92;14.27;;;11.90;58.30;;;;;;5070368;28;20060;-63
2021/10/11 08:57:26;;;;;;;30.73;14.50;;;12.00;58.30;;;;;;5053802;28;20461;-64
2021/10/11 08:59:52;;;;;;;26.58;14.93;;;12.10;58.30;;;;;;5064449;28;20032;-65
2021/10/11 09:02:20;;;;;;;24.00;14.82;;;12.20;58.30;;;;;;5063699;28;20112;-64
2021/10/11 09:04:53;;;;;;;27.10;14.13;;;12.20;58.10;;;;;;5051711;28;20025;-64
2021/10/11 09:07:27;;;;;;;22.23;14.32;;;12.30;58.00;;;;;;5058264;28;20090;-64
2021/10/11 09:09:54;;;;;;;21.45;13.38;;;12.40;57.90;;;;;;5070296;28;20100;-63
2021/10/11 09:12:28;;;;;;;28.02;15.40;;;12.40;57.80;;;;;;5060606;28;20370;-63
2021/10/11 09:15:14;;;;;;;21.87;14.87;;;12.50;57.70;;;;;;5055553;28;20024;-64
2021/10/11 09:17:45;;;;;;;27.73;16.30;;;12.60;57.70;;;;;;5059930;28;20029;-63
2021/10/11 09:20:13;;;;;;;26.55;15.40;;;12.60;57.50;;;;;;5066879;28;20104;-64
2021/10/11 09:22:41;;;;;;;24.95;15.57;;;12.70;57.40;;;;;;5069365;28;20048;-64
2021/10/11 09:25:08;;;;;;;30.83;17.58;;;12.70;57.20;;;;;;5062745;28;20021;-62
2021/10/11 09:27:47;;;;;;;27.30;16.73;;;12.80;57.00;;;;;;5066082;28;20021;-63
2021/10/11 09:30:14;;;;;;;23.27;15.88;;;12.90;56.90;;;;;;5058839;28;20475;-63
2021/10/11 09:32:40;;;;;;;28.75;17.17;;;12.90;57.00;;;;;;5074416;28;20032;-64
2021/10/11 09:35:20;;;;;;;30.75;14.27;;;13.00;56.80;;;;;;5060184;28;20048;-64
2021/10/11 09:37:50;;;;;;;24.30;15.13;;;13.00;56.80;;;;;;5059775;28;20040;-64
2021/10/11 09:40:21;;;;;;;26.60;15.63;;;13.10;56.70;;;;;;5069779;28;20025;-63
2021/10/11 09:42:47;;;;;;;26.63;15.35;;;13.10;56.30;;;;;;5054985;28;20080;-63
2021/10/11 09:45:13;;;;;;;29.77;16.42;;;13.20;56.20;;;;;;5055376;28;20013;-63
2021/10/11 09:47:44;;;;;;;35.17;17.98;;;13.30;56.20;;;;;;5058879;28;20025;-64
2021/10/11 09:50:13;;;;;;;32.92;17.90;;;13.30;56.00;;;;;;5054364;28;20489;-64
2021/10/11 09:52:41;;;;;;;38.72;17.70;;;13.30;55.80;;;;;;5055885;28;20036;-63
2021/10/11 09:55:08;;;;;;;29.63;17.95;;;13.40;55.80;;;;;;5067598;28;20170;-62
2021/10/11 09:57:34;;;;;;;28.48;17.02;;;13.40;55.70;;;;;;5061412;28;20025;-65
2021/10/11 10:00:07;;;;;;;29.77;16.92;;;13.40;55.70;;;;;;5060122;28;20052;-66
2021/10/11 10:02:38;;;;;;;30.25;17.27;;;13.50;55.70;;;;;;5054625;28;20453;-73
2021/10/11 10:05:08;;;;;;;27.10;16.60;;;13.60;55.80;;;;;;5068162;28;20112;-66
2021/10/11 10:07:35;;;;;;;31.40;15.45;;;13.60;55.90;;;;;;5056057;28;20435;-65
2021/10/11 10:10:05;;;;;;;37.88;18.15;;;13.70;55.80;;;;;;5055888;28;20036;-65
2021/10/11 10:12:41;;;;;;;33.50;16.13;;;13.70;55.30;;;;;;5054732;28;20498;-65
2021/10/11 10:15:08;;;;;;;31.60;15.52;;;13.80;55.50;;;;;;5054861;28;20112;-66
2021/10/11 10:17:35;;;;;;;30.52;16.73;;;13.90;55.40;;;;;;5054342;28;20020;-65
2021/10/11 10:20:12;;;;;;;29.27;16.55;;;14.00;55.20;;;;;;5054496;28;20017;-65
2021/10/11 10:22:42;;;;;;;21.38;13.93;;;14.00;55.10;;;;;;5054596;28;20539;-68
2021/10/11 10:25:10;;;;;;;26.67;16.13;;;14.10;55.20;;;;;;5054249;28;20025;-68
2021/10/11 10:27:39;;;;;;;27.42;16.08;;;14.20;54.80;;;;;;5054427;28;20020;-68
2021/10/11 10:30:17;;;;;;;22.20;14.75;;;14.20;54.60;;;;;;5054446;28;20382;-68
2021/10/11 10:32:58;;;;;;;23.83;13.60;;;14.30;54.70;;;;;;5054067;28;20053;-62
2021/10/11 10:35:27;;;;;;;25.42;15.43;;;14.40;54.60;;;;;;5054340;28;20029;-68
2021/10/11 10:37:53;;;;;;;30.92;17.02;;;14.50;54.40;;;;;;5053388;28;20374;-69
2021/10/11 10:40:23;;;;;;;37.33;17.45;;;14.50;53.70;;;;;;5057607;28;20034;-64
2021/10/11 10:42:49;;;;;;;29.80;17.17;;;14.50;53.30;;;;;;5065380;28;20051;-63
2021/10/11 10:45:22;;;;;;;30.42;17.10;;;14.60;53.20;;;;;;5058463;28;20033;-67
2021/10/11 10:47:50;;;;;;;29.25;16.48;;;14.60;53.10;;;;;;5053991;28;20027;-67
2021/10/11 10:50:21;;;;;;;31.33;17.25;;;14.70;53.20;;;;;;5053746;28;20092;-65
2021/10/11 10:52:52;;;;;;;25.98;15.38;;;14.70;53.10;;;;;;5063950;28;20029;-68
2021/10/11 10:55:19;;;;;;;26.45;15.50;;;14.80;53.40;;;;;;5073688;28;20137;-67
2021/10/11 10:57:45;;;;;;;20.98;13.35;;;14.90;53.40;;;;;;5073874;28;20430;-67
2021/10/11 11:00:16;;;;;;;23.52;13.80;;;14.90;53.20;;;;;;5068591;28;20016;-66
2021/10/11 11:02:48;;;;;;;26.20;14.77;;;15.00;53.20;;;;;;5063587;28;20127;-66
2021/10/11 11:05:15;;;;;;;21.90;13.10;;;15.10;52.90;;;;;;5062106;28;20071;-66
2021/10/11 11:07:42;;;;;;;23.02;13.88;;;15.20;52.60;;;;;;5053593;28;20076;-66
2021/10/11 11:10:15;;;;;;;21.67;12.98;;;15.20;52.30;;;;;;5060518;28;20494;-70
2021/10/11 11:12:44;;;;;;;23.80;13.90;;;15.30;52.30;;;;;;5057453;28;20043;-69
2021/10/11 11:15:22;;;;;;;34.95;13.98;;;15.40;52.10;;;;;;5053455;28;20032;-70
2021/10/11 11:17:48;;;;;;;28.90;15.73;;;15.50;51.70;;;;;;5053383;28;20021;-70
2021/10/11 11:20:19;;;;;;;20.88;12.73;;;15.50;50.80;;;;;;5053481;28;20191;-69
2021/10/11 11:22:45;;;;;;;24.67;13.95;;;15.60;51.20;;;;;;5053435;28;20024;-69
2021/10/11 11:25:12;;;;;;;21.00;14.60;;;15.70;50.60;;;;;;5066774;28;20017;-69
2021/10/11 11:27:44;;;;;;;22.13;14.18;;;15.70;50.40;;;;;;5073309;28;20413;-68
2021/10/11 11:30:14;;;;;;;27.30;14.00;;;15.80;50.40;;;;;;5072487;28;20024;-67
2021/10/11 11:32:46;;;;;;;27.77;13.57;;;15.90;50.30;;;;;;5062009;28;20055;-69
2021/10/11 11:35:41;;;;;;;19.42;12.07;;;16.00;50.10;;;;;;5053119;28;20021;-71
2021/10/11 11:38:10;;;;;;;17.58;11.98;;;16.00;50.50;;;;;;5066862;28;20185;-73
2021/10/11 11:40:38;;;;;;;24.27;13.48;;;16.20;50.00;;;;;;5054548;28;20028;-75
2021/10/11 11:43:08;;;;;;;19.25;11.93;;;16.30;49.90;;;;;;5052982;28;20025;-70
2021/10/11 11:45:46;;;;;;;23.85;11.80;;;16.40;50.00;;;;;;5052696;28;20025;-66
2021/10/11 11:48:20;;;;;;;19.80;11.93;;;16.50;48.70;;;;;;5052878;28;20508;-63
2021/10/11 11:50:50;;;;;;;21.23;11.25;;;16.60;47.70;;;;;;5052595;28;20036;-64
2021/10/11 11:53:18;;;;;;;16.42;9.05;;;16.70;47.00;;;;;;5052782;28;20029;-65
2021/10/11 11:55:46;;;;;;;16.23;9.70;;;16.90;47.50;;;;;;5053187;28;20031;-63
2021/10/11 11:58:15;;;;;;;19.13;10.02;;;17.00;47.10;;;;;;5061180;28;20106;-65
2021/10/11 12:00:49;;;;;;;17.23;10.90;;;17.10;46.00;;;;;;5061565;28;20036;-64
2021/10/11 12:03:18;;;;;;;16.73;10.07;;;17.20;45.00;;;;;;5063195;28;20432;-65
2021/10/11 12:05:47;;;;;;;15.02;8.88;;;17.30;45.00;;;;;;5052491;28;20025;-64
2021/10/11 12:08:14;;;;;;;15.15;9.43;;;17.40;45.30;;;;;;5057480;28;20029;-65
2021/10/11 12:10:40;;;;;;;15.48;9.45;;;17.40;45.10;;;;;;5059310;28;20017;-66
2021/10/11 12:13:06;;;;;;;15.95;8.43;;;17.40;44.40;;;;;;5053603;28;20036;-66
2021/10/11 12:15:34;;;;;;;11.55;8.25;;;17.40;44.40;;;;;;5067408;28;20024;-69
2021/10/11 12:18:08;;;;;;;17.35;8.93;;;17.40;44.40;;;;;;5058962;28;20490;-65
2021/10/11 12:20:47;;;;;;;15.90;9.30;;;17.40;43.90;;;;;;5070473;28;20032;-68
2021/10/11 12:23:14;;;;;;;14.02;9.18;;;17.40;43.60;;;;;;5058604;28;20036;-67
2021/10/11 12:25:40;;;;;;;22.92;11.00;;;17.40;44.50;;;;;;5052042;28;20106;-69
2021/10/11 12:28:12;;;;;;;17.40;9.88;;;17.40;44.40;;;;;;5054477;28;20021;-68
2021/10/11 12:30:38;;;;;;;19.40;9.38;;;17.40;43.60;;;;;;5052875;28;20023;-66
2021/10/11 12:33:13;;;;;;;17.40;9.10;;;17.40;44.00;;;;;;5052109;28;20017;-66